createdAt,value
2019-05-21T00:02:14.461Z,11.63
2019-05-21T00:04:45.570Z,12.15
2019-05-21T00:07:14.650Z,13.95
2019-05-21T00:09:43.869Z,12.37
2019-05-21T00:12:13.163Z,16.90
2019-05-21T00:14:42.301Z,12.85
2019-05-21T00:17:11.490Z,10.05
2019-05-21T00:19:40.759Z,10.72
2019-05-21T00:22:09.898Z,13.62
2019-05-21T00:24:39.219Z,10.00
2019-05-21T00:27:08.645Z,11.50
2019-05-21T00:30:14.141Z,11.63
2019-05-21T00:33:20.963Z,9.75
2019-05-21T00:36:28.297Z,15.25
2019-05-21T00:39:34.032Z,14.75
2019-05-21T00:42:02.561Z,13.50
2019-05-21T00:44:43.444Z,12.18
2019-05-21T00:47:13.338Z,12.03
2019-05-21T00:49:42.672Z,11.53
2019-05-21T00:52:11.908Z,15.65
2019-05-21T00:54:41.050Z,14.13
2019-05-21T00:57:10.201Z,15.58
2019-05-21T00:59:39.484Z,14.68
2019-05-21T01:02:11.149Z,14.53
2019-05-21T01:04:39.502Z,13.38
2019-05-21T01:07:08.716Z,16.97
2019-05-21T01:09:37.909Z,12.93
2019-05-21T01:12:09.165Z,14.00
2019-05-21T01:14:38.090Z,14.03
2019-05-21T01:17:07.256Z,12.93
2019-05-21T01:19:36.467Z,14.03
2019-05-21T01:22:05.743Z,13.70
2019-05-21T01:24:35.025Z,14.75
2019-05-21T01:27:05.024Z,16.12
2019-05-21T01:29:34.265Z,15.00
2019-05-21T01:32:03.892Z,15.03
2019-05-21T01:34:33.536Z,17.10
2019-05-21T01:37:03.056Z,17.77
2019-05-21T01:39:32.300Z,14.83
2019-05-21T01:42:01.471Z,15.03
2019-05-21T01:44:30.652Z,18.62
2019-05-21T01:46:59.792Z,17.80
2019-05-21T01:49:28.901Z,20.82
2019-05-21T01:51:58.593Z,16.30
2019-05-21T01:54:27.835Z,16.40
2019-05-21T01:56:58.810Z,21.05
2019-05-21T01:59:27.942Z,20.80
2019-05-21T02:01:57.195Z,21.10
2019-05-21T02:04:26.531Z,22.35
2019-05-21T02:06:56.099Z,18.48
2019-05-21T02:09:25.301Z,19.32
2019-05-21T02:11:54.495Z,23.38
2019-05-21T02:14:23.602Z,18.07
2019-05-21T02:16:52.901Z,19.20
2019-05-21T02:19:21.987Z,19.02
2019-05-21T02:21:51.183Z,18.73
2019-05-21T02:24:20.494Z,19.02
2019-05-21T02:26:50.892Z,22.70
2019-05-21T02:29:20.138Z,19.07
2019-05-21T02:31:49.254Z,18.20
2019-05-21T02:34:18.499Z,20.05
2019-05-21T02:36:47.641Z,19.65
2019-05-21T02:39:16.845Z,19.45
2019-05-21T02:41:46.057Z,22.00
2019-05-21T02:44:15.151Z,18.77
2019-05-21T02:46:44.386Z,16.10
2019-05-21T02:49:15.248Z,19.20
2019-05-21T02:51:44.376Z,22.60
2019-05-21T02:54:13.685Z,17.87
2019-05-21T02:56:43.046Z,19.70
2019-05-21T02:59:12.327Z,19.70
2019-05-21T03:01:46.358Z,19.77
2019-05-21T03:04:15.602Z,19.12
2019-05-21T03:06:44.782Z,21.82
2019-05-21T03:09:13.957Z,21.45
2019-05-21T03:11:44.203Z,22.00
2019-05-21T03:14:13.509Z,23.10
2019-05-21T03:16:42.706Z,22.58
2019-05-21T03:19:16.333Z,25.12
2019-05-21T03:21:42.799Z,26.45
2019-05-21T03:24:12.015Z,23.52
2019-05-21T03:26:41.181Z,21.48
2019-05-21T03:29:11.486Z,19.80
2019-05-21T03:31:40.597Z,18.07
2019-05-21T03:34:09.802Z,24.67
2019-05-21T03:36:38.905Z,23.85
2019-05-21T03:39:08.301Z,24.55
2019-05-21T03:41:37.579Z,18.70
2019-05-21T03:44:06.813Z,15.50
2019-05-21T03:46:36.182Z,15.38
2019-05-21T03:49:05.384Z,15.13
2019-05-21T03:51:34.500Z,17.77
2019-05-21T03:54:05.631Z,19.15
2019-05-21T03:59:03.730Z,14.83
2019-05-21T04:01:34.176Z,14.47
2019-05-21T04:04:03.430Z,19.20
2019-05-21T04:06:48.874Z,31.50
2019-05-21T04:09:04.478Z,23.55
2019-05-21T04:11:33.709Z,16.20
2019-05-21T04:14:03.086Z,13.50
2019-05-21T04:16:49.998Z,13.53
2019-05-21T04:19:20.832Z,14.85
2019-05-21T04:21:49.953Z,13.55
2019-05-21T04:24:19.151Z,13.95
2019-05-21T04:26:48.321Z,13.75
2019-05-21T04:29:17.512Z,14.87
2019-05-21T04:31:46.657Z,15.70
2019-05-21T04:34:15.912Z,13.50
2019-05-21T04:36:45.070Z,10.38
2019-05-21T04:39:14.414Z,17.37
2019-05-21T04:41:43.686Z,13.43
2019-05-21T04:44:12.963Z,14.28
2019-05-21T04:46:42.295Z,14.38
2019-05-21T04:49:11.507Z,11.97
2019-05-21T04:51:45.446Z,16.20
2019-05-21T04:54:15.661Z,13.08
2019-05-21T04:56:44.940Z,12.33
2019-05-21T04:59:14.376Z,11.90
2019-05-21T05:01:43.642Z,19.35
2019-05-21T05:04:12.917Z,14.87
2019-05-21T05:06:42.067Z,29.65
2019-05-21T05:09:13.103Z,14.20
2019-05-21T05:11:42.327Z,16.05
2019-05-21T05:14:11.570Z,16.65
2019-05-21T05:16:40.897Z,18.67
2019-05-21T05:19:10.211Z,19.02
2019-05-21T05:21:39.465Z,21.40
2019-05-21T05:24:08.661Z,19.48
2019-05-21T05:26:37.929Z,19.30
2019-05-21T05:29:07.317Z,23.42
2019-05-21T05:31:36.611Z,22.15
2019-05-21T05:34:05.787Z,22.30
2019-05-21T05:36:35.001Z,17.85
2019-05-21T05:39:07.575Z,23.85
2019-05-21T05:41:39.281Z,22.22
2019-05-21T05:44:07.706Z,21.85
2019-05-21T05:46:41.200Z,22.48
2019-05-21T05:51:46.777Z,21.70
2019-05-21T05:54:16.137Z,23.35
2019-05-21T05:56:45.320Z,25.75
2019-05-21T05:59:18.063Z,24.90
2019-05-21T06:01:50.201Z,22.15
2019-05-21T06:04:19.436Z,26.45
2019-05-21T06:06:48.726Z,20.80
2019-05-21T06:09:17.955Z,24.15
2019-05-21T06:11:47.085Z,21.82
2019-05-21T06:14:16.230Z,26.35
2019-05-21T06:16:45.342Z,25.95
2019-05-21T06:19:17.441Z,25.12
2019-05-21T06:21:46.601Z,26.05
2019-05-21T06:24:15.709Z,22.52
2019-05-21T06:26:45.005Z,22.95
2019-05-21T06:29:14.272Z,29.20
2019-05-21T06:31:43.901Z,24.27
2019-05-21T06:34:13.361Z,25.15
2019-05-21T06:36:42.580Z,26.10
2019-05-21T06:39:11.942Z,25.80
2019-05-21T06:41:41.112Z,25.55
2019-05-21T06:44:10.284Z,23.15
2019-05-21T06:46:39.578Z,25.75
2019-05-21T06:49:08.896Z,28.67
2019-05-21T06:51:38.045Z,24.23
2019-05-21T06:54:07.239Z,27.30
2019-05-21T06:56:36.540Z,25.52
2019-05-21T06:59:05.777Z,27.13
2019-05-21T07:01:35.059Z,24.10
2019-05-21T07:04:04.359Z,24.12
2019-05-21T07:06:33.550Z,25.72
2019-05-21T07:09:02.745Z,27.05
2019-05-21T07:11:51.288Z,22.98
2019-05-21T07:14:20.469Z,23.40
2019-05-21T07:16:49.796Z,27.62
2019-05-21T07:19:19.075Z,20.90
2019-05-21T07:21:48.251Z,20.52
2019-05-21T07:24:17.361Z,20.17
2019-05-21T07:26:46.547Z,20.68
2019-05-21T07:29:15.732Z,21.52
2019-05-21T07:31:44.979Z,19.90
2019-05-21T07:34:14.290Z,17.95
2019-05-21T07:36:43.601Z,24.52
2019-05-21T07:39:12.846Z,23.10
2019-05-21T07:41:42.050Z,18.67
2019-05-21T07:44:11.203Z,22.35
2019-05-21T07:46:40.541Z,17.23
2019-05-21T07:49:09.696Z,18.70
2019-05-21T07:51:38.914Z,16.93
2019-05-21T07:54:08.093Z,19.62
2019-05-21T07:56:37.342Z,23.70
2019-05-21T07:59:06.704Z,14.05
2019-05-21T08:01:35.930Z,18.62
2019-05-21T08:04:05.224Z,16.23
2019-05-21T08:06:34.523Z,20.55
2019-05-21T08:09:13.413Z,14.85
2019-05-21T08:11:36.576Z,17.17
2019-05-21T08:14:06.103Z,17.42
2019-05-21T08:16:35.450Z,19.77
2019-05-21T08:19:04.782Z,17.10
2019-05-21T08:21:34.051Z,17.17
2019-05-21T08:24:03.198Z,18.80
2019-05-21T08:26:32.520Z,15.13
2019-05-21T08:29:01.744Z,17.12
2019-05-21T08:31:30.930Z,16.25
2019-05-21T08:34:00.069Z,14.38
2019-05-21T08:36:29.264Z,14.30
2019-05-21T08:38:58.534Z,16.27
2019-05-21T08:41:27.791Z,11.28
2019-05-21T08:43:57.017Z,13.62
2019-05-21T08:46:26.248Z,12.20
2019-05-21T08:48:55.537Z,12.80
2019-05-21T08:51:24.726Z,15.30
2019-05-21T08:53:54.370Z,14.23
2019-05-21T08:56:23.650Z,14.40
2019-05-21T08:58:52.939Z,15.08
2019-05-21T09:01:22.475Z,13.40
2019-05-21T09:03:51.914Z,10.93
2019-05-21T09:06:22.270Z,14.23
2019-05-21T09:08:51.549Z,14.15
2019-05-21T09:11:20.812Z,11.05
2019-05-21T09:13:50.114Z,12.98
2019-05-21T09:16:19.384Z,14.60
2019-05-21T09:18:48.642Z,13.90
2019-05-21T09:21:17.880Z,13.45
2019-05-21T09:23:47.035Z,11.10
2019-05-21T09:26:16.458Z,11.35
2019-05-21T09:28:45.899Z,13.45
2019-05-21T09:31:15.026Z,12.07
2019-05-21T09:33:44.550Z,12.00
2019-05-21T09:36:13.691Z,12.58
2019-05-21T09:38:42.970Z,11.70
2019-05-21T09:41:12.235Z,10.78
2019-05-21T09:43:43.133Z,13.38
2019-05-21T09:46:12.496Z,12.43
2019-05-21T09:48:41.852Z,11.35
2019-05-21T09:51:19.502Z,13.93
2019-05-21T09:53:41.811Z,12.00
2019-05-21T09:56:28.628Z,10.90
2019-05-21T09:58:59.511Z,12.80
2019-05-21T10:01:47.917Z,10.63
2019-05-21T10:04:17.827Z,14.13
2019-05-21T10:06:47.131Z,12.03
2019-05-21T10:09:18.125Z,13.38
2019-05-21T10:14:15.686Z,11.10
2019-05-21T10:16:45.363Z,10.48
2019-05-21T10:19:18.309Z,13.00
2019-05-21T10:21:47.561Z,10.40
2019-05-21T10:24:16.826Z,8.95
2019-05-21T10:26:46.119Z,16.93
2019-05-21T10:29:15.995Z,11.97
2019-05-21T10:31:45.190Z,10.13
2019-05-21T10:34:14.418Z,10.58
2019-05-21T10:36:43.886Z,7.60
2019-05-21T10:39:13.230Z,11.53
2019-05-21T10:41:45.946Z,8.85
2019-05-21T10:44:13.430Z,7.72
2019-05-21T10:46:43.786Z,9.18
2019-05-21T10:49:12.991Z,12.05
2019-05-21T10:51:42.244Z,15.40
2019-05-21T10:54:11.418Z,13.88
2019-05-21T10:56:48.133Z,12.20
2019-05-21T10:59:11.466Z,14.13
2019-05-21T11:01:58.594Z,9.73
2019-05-21T11:04:32.193Z,8.05
2019-05-21T11:07:01.371Z,11.63
2019-05-21T11:09:30.621Z,9.38
2019-05-21T11:11:59.931Z,7.75
2019-05-21T11:14:29.165Z,8.33
2019-05-21T11:16:58.424Z,10.23
2019-05-21T11:19:29.195Z,6.67
2019-05-21T11:21:58.432Z,9.18
2019-05-21T11:24:27.562Z,7.70
2019-05-21T11:26:56.806Z,10.63
2019-05-21T11:29:25.973Z,8.48
2019-05-21T11:31:57.445Z,10.23
2019-05-21T11:34:26.109Z,15.00
2019-05-21T11:36:55.402Z,8.98
2019-05-21T11:39:24.559Z,12.30
2019-05-21T11:41:53.821Z,11.38
2019-05-21T11:44:22.987Z,8.00
2019-05-21T11:46:52.252Z,9.83
2019-05-21T11:49:21.535Z,10.05
2019-05-21T11:51:50.798Z,15.45
2019-05-21T11:54:20.068Z,16.17
2019-05-21T11:56:49.261Z,7.65
2019-05-21T11:59:18.414Z,9.28
2019-05-21T12:01:47.636Z,6.60
2019-05-21T12:04:16.760Z,9.80
2019-05-21T12:06:45.997Z,20.20
2019-05-21T12:09:15.173Z,20.27
2019-05-21T12:11:44.374Z,9.50
2019-05-21T12:14:13.629Z,4.53
2019-05-21T12:16:42.779Z,2.45
2019-05-21T12:19:11.913Z,10.30
2019-05-21T12:21:41.202Z,8.83
2019-05-21T12:24:10.430Z,10.18
2019-05-21T12:26:39.731Z,11.57
2019-05-21T12:29:08.833Z,15.05
2019-05-21T12:31:38.047Z,12.65
2019-05-21T12:34:07.260Z,11.25
2019-05-21T12:36:36.575Z,9.93
2019-05-21T12:39:14.400Z,11.83
2019-05-21T12:41:38.016Z,8.50
2019-05-21T12:44:07.293Z,7.50
2019-05-21T12:46:36.520Z,11.12
2019-05-21T12:49:05.854Z,7.97
2019-05-21T12:51:34.946Z,9.00
2019-05-21T12:54:04.308Z,8.65
2019-05-21T12:56:33.569Z,9.15
2019-05-21T12:59:03.111Z,10.63
2019-05-21T13:01:32.542Z,9.98
2019-05-21T13:04:21.228Z,9.50
2019-05-21T13:06:50.445Z,8.58
2019-05-21T13:09:32.388Z,8.83
2019-05-21T13:11:50.448Z,10.13
2019-05-21T13:14:19.718Z,9.83
2019-05-21T13:16:48.935Z,6.42
2019-05-21T13:19:18.162Z,5.03
2019-05-21T13:21:47.487Z,6.03
2019-05-21T13:24:16.673Z,8.75
2019-05-21T13:26:45.979Z,7.78
2019-05-21T13:29:15.151Z,5.67
2019-05-21T13:31:44.307Z,8.58
2019-05-21T13:34:13.534Z,7.53
2019-05-21T13:36:42.769Z,7.78
2019-05-21T13:39:12.160Z,7.33
2019-05-21T13:41:41.365Z,10.20
2019-05-21T13:44:10.667Z,8.15
2019-05-21T13:46:39.830Z,8.58
2019-05-21T13:49:09.046Z,16.23
2019-05-21T13:51:38.161Z,12.45
2019-05-21T13:54:07.339Z,8.30
2019-05-21T13:56:36.537Z,7.22
2019-05-21T13:59:05.757Z,5.40
2019-05-21T14:01:40.783Z,8.98
2019-05-21T14:04:06.047Z,5.35
2019-05-21T14:06:35.280Z,5.62
2019-05-21T14:09:06.190Z,4.45
2019-05-21T14:11:36.836Z,4.22
2019-05-21T14:14:06.397Z,3.80
2019-05-21T14:16:35.902Z,4.17
2019-05-21T14:19:05.509Z,2.90
2019-05-21T14:21:34.748Z,5.00
2019-05-21T14:24:04.032Z,5.40
2019-05-21T14:26:33.309Z,3.58
2019-05-21T14:29:02.507Z,5.05
2019-05-21T14:31:31.682Z,2.95
2019-05-21T14:34:00.907Z,4.25
2019-05-21T14:36:30.153Z,4.37
2019-05-21T14:38:59.387Z,8.10
2019-05-21T14:41:28.470Z,7.05
2019-05-21T14:43:57.678Z,3.92
2019-05-21T14:46:26.848Z,4.15
2019-05-21T14:48:56.074Z,3.05
2019-05-21T14:51:25.196Z,3.00
2019-05-21T14:53:56.193Z,3.37
2019-05-21T14:56:25.431Z,1.52
2019-05-21T14:58:54.581Z,2.45
2019-05-21T15:01:23.834Z,1.37
2019-05-21T15:03:53.060Z,1.22
2019-05-21T15:06:22.927Z,2.08
2019-05-21T15:08:52.061Z,3.62
2019-05-21T15:11:21.188Z,2.72
2019-05-21T15:13:50.331Z,1.32
2019-05-21T15:16:19.692Z,2.37
2019-05-21T15:18:49.024Z,3.20
2019-05-21T15:21:22.813Z,2.87
2019-05-21T15:23:52.685Z,1.67
2019-05-21T15:26:22.052Z,1.65
2019-05-21T15:28:51.274Z,1.85
2019-05-21T15:31:20.464Z,1.20
2019-05-21T15:33:49.661Z,3.05
2019-05-21T15:36:18.940Z,2.12
2019-05-21T15:38:50.800Z,1.60
2019-05-21T15:41:18.921Z,1.27
2019-05-21T15:43:48.202Z,0.88
2019-05-21T15:46:17.385Z,0.80
2019-05-21T15:48:46.463Z,1.35
2019-05-21T15:51:15.656Z,3.50
2019-05-21T15:53:44.919Z,1.60
2019-05-21T15:56:14.328Z,1.00
2019-05-21T15:58:43.493Z,0.62
2019-05-21T16:01:13.477Z,0.25
2019-05-21T16:03:42.769Z,3.42
2019-05-21T16:06:12.020Z,1.98
2019-05-21T16:08:41.275Z,1.87
2019-05-21T16:11:27.504Z,0.40
2019-05-21T16:13:41.306Z,1.85
2019-05-21T16:16:10.582Z,0.65
2019-05-21T16:18:39.792Z,1.02
2019-05-21T16:21:08.968Z,2.02
2019-05-21T16:23:38.077Z,0.93
2019-05-21T16:26:07.379Z,1.27
2019-05-21T16:28:36.529Z,2.17
2019-05-21T16:31:05.817Z,1.07
2019-05-21T16:33:34.976Z,1.22
2019-05-21T16:36:04.387Z,1.37
2019-05-21T16:38:33.758Z,1.85
2019-05-21T16:41:02.963Z,1.75
2019-05-21T16:43:32.148Z,2.65
2019-05-21T16:46:01.426Z,2.95
2019-05-21T16:48:30.607Z,1.35
2019-05-21T16:50:59.826Z,1.17
2019-05-21T16:53:29.033Z,1.47
2019-05-21T16:55:58.189Z,1.35
2019-05-21T16:58:27.294Z,2.55
2019-05-21T17:00:56.476Z,2.30
2019-05-21T17:03:25.711Z,1.95
2019-05-21T17:05:54.940Z,2.50
2019-05-21T17:08:24.216Z,2.40
2019-05-21T17:10:53.350Z,1.05
2019-05-21T17:13:22.592Z,1.42
2019-05-21T17:15:51.866Z,2.08
2019-05-21T17:18:21.097Z,2.33
2019-05-21T17:20:50.395Z,2.52
2019-05-21T17:23:19.527Z,2.42
2019-05-21T17:25:48.772Z,1.47
2019-05-21T17:28:17.955Z,1.15
2019-05-21T17:30:47.221Z,2.65
2019-05-21T17:33:16.454Z,2.70
2019-05-21T17:35:45.726Z,1.02
2019-05-21T17:38:14.990Z,2.98
2019-05-21T17:40:44.266Z,1.85
2019-05-21T17:43:13.501Z,1.90
2019-05-21T17:45:42.633Z,3.37
2019-05-21T17:48:11.824Z,1.32
2019-05-21T17:50:41.123Z,1.17
2019-05-21T17:53:10.543Z,0.90
2019-05-21T17:55:39.733Z,2.55
2019-05-21T17:58:09.092Z,1.37
2019-05-21T18:00:46.038Z,1.75
2019-05-21T18:03:15.746Z,2.45
2019-05-21T18:05:45.720Z,2.58
2019-05-21T18:08:17.097Z,1.90
2019-05-21T18:10:46.470Z,2.10
2019-05-21T18:13:16.417Z,2.42
2019-05-21T18:15:45.652Z,4.35
2019-05-21T18:18:15.045Z,3.02
2019-05-21T18:20:45.280Z,7.22
2019-05-21T18:23:15.094Z,2.23
2019-05-21T18:25:44.232Z,3.65
2019-05-21T18:28:13.456Z,4.42
2019-05-21T18:30:42.963Z,2.25
2019-05-21T18:33:12.232Z,1.45
2019-05-21T18:35:41.471Z,3.35
2019-05-21T18:38:10.674Z,1.87
2019-05-21T18:40:40.135Z,2.20
2019-05-21T18:43:09.385Z,4.40
2019-05-21T18:45:38.757Z,2.90
2019-05-21T18:48:08.120Z,2.45
2019-05-21T18:50:37.476Z,2.05
2019-05-21T18:53:06.693Z,5.35
2019-05-21T18:55:35.897Z,2.72
2019-05-21T18:58:05.187Z,3.98
2019-05-21T19:00:34.392Z,7.50
2019-05-21T19:03:03.599Z,4.72
2019-05-21T19:05:32.835Z,5.83
2019-05-21T19:08:02.053Z,5.45
2019-05-21T19:10:31.321Z,5.80
2019-05-21T19:13:01.196Z,6.50
2019-05-21T19:15:30.447Z,9.08
2019-05-21T19:17:59.646Z,3.55
2019-05-21T19:20:28.905Z,2.60
2019-05-21T19:22:58.195Z,5.30
2019-05-21T19:25:27.406Z,3.17
2019-05-21T19:27:56.692Z,3.02
2019-05-21T19:30:25.860Z,3.98
2019-05-21T19:32:55.147Z,2.30
2019-05-21T19:35:24.471Z,3.42
2019-05-21T19:37:53.589Z,1.82
2019-05-21T19:40:22.800Z,5.12
2019-05-21T19:42:55.410Z,1.95
2019-05-21T19:45:23.108Z,1.82
2019-05-21T19:47:52.318Z,3.37
2019-05-21T19:50:21.589Z,2.87
2019-05-21T19:52:50.900Z,3.65
2019-05-21T19:55:20.656Z,2.65
2019-05-21T19:57:49.871Z,2.65
2019-05-21T20:00:20.869Z,3.85
2019-05-21T20:02:52.784Z,2.72
2019-05-21T20:05:22.042Z,1.72
2019-05-21T20:07:51.414Z,2.40
2019-05-21T20:10:21.371Z,2.08
2019-05-21T20:12:51.042Z,3.35
2019-05-21T20:15:20.254Z,4.72
2019-05-21T20:18:06.209Z,4.03
2019-05-21T20:20:23.762Z,2.25
2019-05-21T20:22:53.242Z,2.83
2019-05-21T20:25:23.626Z,3.65
2019-05-21T20:27:53.163Z,2.08
2019-05-21T20:30:24.320Z,2.42
2019-05-21T20:35:25.436Z,5.12
2019-05-21T20:37:57.267Z,2.37
2019-05-21T20:40:27.553Z,2.20
2019-05-21T20:42:57.134Z,2.77
2019-05-21T20:45:28.063Z,3.15
2019-05-21T20:48:01.061Z,1.95
2019-05-21T20:50:30.431Z,2.65
2019-05-21T20:53:02.807Z,1.52
2019-05-21T20:55:32.593Z,4.67
2019-05-21T20:58:01.674Z,1.80
2019-05-21T21:00:38.595Z,2.17
2019-05-21T21:03:09.511Z,1.65
2019-05-21T21:05:39.461Z,3.08
2019-05-21T21:08:10.801Z,2.62
2019-05-21T21:10:40.010Z,5.40
2019-05-21T21:13:11.628Z,2.47
2019-05-21T21:15:41.071Z,2.40
2019-05-21T21:18:10.299Z,2.10
2019-05-21T21:20:39.617Z,2.15
2019-05-21T21:23:08.931Z,1.87
2019-05-21T21:25:38.219Z,1.67
2019-05-21T21:28:07.478Z,1.90
2019-05-21T21:30:37.403Z,3.05
2019-05-21T21:33:08.208Z,3.30
2019-05-21T21:35:38.012Z,1.57
2019-05-21T21:38:08.803Z,0.88
2019-05-21T21:40:38.174Z,2.25
2019-05-21T21:43:08.099Z,1.47
2019-05-21T21:45:38.699Z,2.27
2019-05-21T21:48:08.765Z,2.20
2019-05-21T21:50:39.717Z,4.15
2019-05-21T21:53:08.975Z,2.08
2019-05-21T21:55:38.160Z,1.55
2019-05-21T21:58:07.394Z,2.37
2019-05-21T22:00:49.753Z,5.22
2019-05-21T22:03:20.408Z,2.05
2019-05-21T22:05:49.679Z,3.72
2019-05-21T22:08:18.837Z,5.85
2019-05-21T22:10:49.290Z,5.90
2019-05-21T22:13:18.795Z,1.92
2019-05-21T22:15:47.998Z,3.22
2019-05-21T22:18:17.937Z,2.77
2019-05-21T22:20:47.498Z,3.90
2019-05-21T22:23:16.906Z,3.25
2019-05-21T22:25:46.866Z,2.60
2019-05-21T22:28:16.645Z,3.20
2019-05-21T22:30:46.458Z,1.85
2019-05-21T22:33:17.173Z,1.62
2019-05-21T22:35:46.350Z,3.50
2019-05-21T22:38:15.786Z,6.10
2019-05-21T22:40:45.093Z,2.15
2019-05-21T22:43:14.348Z,5.50
2019-05-21T22:45:43.547Z,1.80
2019-05-21T22:48:12.975Z,2.12
2019-05-21T22:50:42.125Z,1.60
2019-05-21T22:53:11.314Z,2.77
2019-05-21T22:55:40.559Z,2.80
2019-05-21T22:58:09.764Z,4.62
2019-05-21T23:00:39.078Z,1.62
2019-05-21T23:03:08.342Z,2.62
2019-05-21T23:05:37.546Z,2.92
2019-05-21T23:08:06.893Z,4.08
2019-05-21T23:10:37.038Z,2.22
2019-05-21T23:13:06.234Z,1.12
2019-05-21T23:15:35.336Z,3.00
2019-05-21T23:18:05.249Z,3.27
2019-05-21T23:20:36.517Z,1.25
2019-05-21T23:25:36.693Z,2.02
2019-05-21T23:28:06.252Z,1.72
2019-05-21T23:30:35.669Z,2.05
2019-05-21T23:33:04.774Z,4.03
2019-05-21T23:35:34.906Z,1.27
2019-05-21T23:38:05.914Z,4.87
2019-05-21T23:40:35.296Z,3.72
2019-05-21T23:43:06.069Z,1.75
2019-05-21T23:45:35.585Z,5.92
2019-05-21T23:48:06.625Z,1.32
2019-05-21T23:50:36.191Z,1.42
2019-05-21T23:53:07.580Z,1.50
2019-05-21T23:55:37.498Z,1.80
2019-05-21T23:58:07.942Z,3.35
